Time;durP1;ratioP1;P1;durP2;ratioP2;P2;SDS_P1;SDS_P2;PMS_P1;PMS_P2;Temp;Humidity;BMP_temperature;BMP_pressure;BME280_temperature;BME280_humidity;BME280_pressure;Samples;Min_cycle;Max_cycle;Signal;HPM_P1;HPM_P2
2021/10/20 00:00:19;;;;;;;;;;;;;;;;;;1013608;29;1088;-9
2021/10/20 00:00:50;;;;;;;;;;;;;;;;;;1010146;29;1038;-8
2021/10/20 00:01:21;;;;;;;;;;;;;;;;;;1010389;29;1118;-8
2021/10/20 00:01:51;;;;;;;;;;;;;;;;;;1015076;29;1181;-10
2021/10/20 00:02:22;;;;;;;;;;;;;;;;;;1017922;28;1173;-8
2021/10/20 00:02:54;;;;;;;;;;;;;;;;;;1034016;28;1260;-8
2021/10/20 00:03:25;;;;;;;;;;;;;;;;;;1025498;28;1173;-9
2021/10/20 00:03:55;;;;;;;;;;;;;;;;;;1014283;29;1200;-9
2021/10/20 00:04:26;;;;;;;;;;;;;;;;;;1014248;29;930;-8
2021/10/20 00:04:57;;;;;;;;;;;;;;;;;;1006493;29;1301;-8
2021/10/20 00:05:28;;;;;;;;;;;;;;;;;;1006648;29;1035;-7
2021/10/20 00:05:59;;;;;;;;;;;;;;;;;;1010215;29;1720;-8
2021/10/20 00:06:29;;;;;;;;;;;;;;;;;;1018598;28;1152;-8
2021/10/20 00:07:00;;;;;;;;;;;;;;;;;;1026912;28;1270;-8
2021/10/20 00:07:30;;;;;;;;;;;;;;;;;;1034067;28;1287;-8
2021/10/20 00:08:03;;;;;;;;;;;;;;;;;;1034346;28;1074;-8
2021/10/20 00:08:34;;;;;;;;;;;;;;;;;;1029585;28;1305;-9
2021/10/20 00:09:05;;;;;;;;;;;;;;;;;;1021913;28;1155;-8
2021/10/20 00:09:35;;;;;;;;;;;;;;;;;;1014392;29;1109;-9
2021/10/20 00:10:06;;;;;;;;;;;;;;;;;;1013309;29;1231;-8
2021/10/20 00:10:37;;;;;;;;;;;;;;;;;;1018647;28;1159;-8
2021/10/20 00:11:08;;;;;;;;;;;;;;;;;;1026393;28;1914;-9
2021/10/20 00:11:39;;;;;;;;;;;;;;;;;;1029228;28;1399;-8
2021/10/20 00:12:09;;;;;;;;;;;;;;;;;;1025721;28;1105;-9
2021/10/20 00:12:40;;;;;;;;;;;;;;;;;;1022220;28;1140;-8
2021/10/20 00:13:11;;;;;;;;;;;;;;;;;;1014384;29;1315;-8
2021/10/20 00:13:41;;;;;;;;;;;;;;;;;;1022351;28;938;-8
2021/10/20 00:14:11;;;;;;;;;;;;;;;;;;1017512;29;1215;-8
2021/10/20 00:14:43;;;;;;;;;;;;;;;;;;1022352;28;1277;-8
2021/10/20 00:15:15;;;;;;;;;;;;;;;;;;1026017;28;1331;-9
2021/10/20 00:15:45;;;;;;;;;;;;;;;;;;1026023;28;1052;-8
2021/10/20 00:16:18;;;;;;;;;;;;;;;;;;1025928;28;992;-9
2021/10/20 00:16:49;;;;;;;;;;;;;;;;;;1018121;29;1006;-8
2021/10/20 00:17:20;;;;;;;;;;;;;;;;;;1022674;28;1313;-9
2021/10/20 00:17:50;;;;;;;;;;;;;;;;;;1026025;28;1967;-8
2021/10/20 00:18:21;;;;;;;;;;;;;;;;;;1026218;28;1184;-8
2021/10/20 00:18:52;;;;;;;;;;;;;;;;;;1026234;28;1399;-8
2021/10/20 00:19:22;;;;;;;;;;;;;;;;;;1021373;28;1196;-8
2021/10/20 00:19:58;;;;;;;;;;;;;;;;;;1018200;29;1250;-8
2021/10/20 00:20:29;;;;;;;;;;;;;;;;;;1017994;29;1105;-10
2021/10/20 00:21:04;;;;;;;;;;;;;;;;;;1021700;28;1351;-8
2021/10/20 00:21:34;;;;;;;;;;;;;;;;;;1022311;28;1093;-8
2021/10/20 00:22:05;;;;;;;;;;;;;;;;;;1021590;28;1314;-8
2021/10/20 00:22:36;;;;;;;;;;;;;;;;;;1033085;28;1233;-8
2021/10/20 00:23:09;;;;;;;;;;;;;;;;;;1030378;28;1021;-8
2021/10/20 00:23:40;;;;;;;;;;;;;;;;;;1029928;28;1225;-8
2021/10/20 00:24:10;;;;;;;;;;;;;;;;;;1025228;28;1352;-9
2021/10/20 00:24:41;;;;;;;;;;;;;;;;;;1017632;28;1242;-8
2021/10/20 00:25:12;;;;;;;;;;;;;;;;;;1021952;28;1700;-8
2021/10/20 00:25:43;;;;;;;;;;;;;;;;;;1026006;28;1343;-9
2021/10/20 00:26:13;;;;;;;;;;;;;;;;;;1021926;28;1159;-9
2021/10/20 00:26:44;;;;;;;;;;;;;;;;;;1022208;28;1132;-8
2021/10/20 00:27:15;;;;;;;;;;;;;;;;;;1017650;29;1328;-8
2021/10/20 00:27:46;;;;;;;;;;;;;;;;;;1021821;28;1235;-8
2021/10/20 00:28:17;;;;;;;;;;;;;;;;;;1022098;28;1044;-8
2021/10/20 00:28:47;;;;;;;;;;;;;;;;;;1017748;28;1240;-8
2021/10/20 00:29:18;;;;;;;;;;;;;;;;;;1021860;28;1118;-9
2021/10/20 00:29:49;;;;;;;;;;;;;;;;;;1021773;28;1322;-8
2021/10/20 00:30:20;;;;;;;;;;;;;;;;;;1017059;29;1336;-8
2021/10/20 00:30:51;;;;;;;;;;;;;;;;;;1006446;29;1275;-8
2021/10/20 00:31:21;;;;;;;;;;;;;;;;;;1009420;29;1976;-9
2021/10/20 00:31:52;;;;;;;;;;;;;;;;;;1014199;29;1346;-9
2021/10/20 00:32:23;;;;;;;;;;;;;;;;;;1022199;28;1033;-8
2021/10/20 00:32:54;;;;;;;;;;;;;;;;;;1025019;28;1359;-8
2021/10/20 00:33:25;;;;;;;;;;;;;;;;;;1025617;28;1259;-9
2021/10/20 00:33:56;;;;;;;;;;;;;;;;;;1017655;29;1230;-8
2021/10/20 00:34:27;;;;;;;;;;;;;;;;;;1025655;28;1290;-9
2021/10/20 00:34:57;;;;;;;;;;;;;;;;;;1030348;28;1059;-8
2021/10/20 00:35:28;;;;;;;;;;;;;;;;;;1029357;28;1639;-8
2021/10/20 00:35:58;;;;;;;;;;;;;;;;;;1029366;28;1410;-8
2021/10/20 00:36:29;;;;;;;;;;;;;;;;;;1022271;28;1289;-8
2021/10/20 00:37:00;;;;;;;;;;;;;;;;;;1025789;28;1211;-8
2021/10/20 00:37:31;;;;;;;;;;;;;;;;;;1026246;28;1105;-9
2021/10/20 00:38:02;;;;;;;;;;;;;;;;;;1025208;28;1940;-8
2021/10/20 00:38:32;;;;;;;;;;;;;;;;;;1025895;28;1209;-8
2021/10/20 00:39:03;;;;;;;;;;;;;;;;;;1021980;28;877;-9
2021/10/20 00:39:34;;;;;;;;;;;;;;;;;;1021758;28;1243;-9
2021/10/20 00:40:05;;;;;;;;;;;;;;;;;;1025965;28;1276;-8
2021/10/20 00:40:36;;;;;;;;;;;;;;;;;;1026342;28;1001;-8
2021/10/20 00:41:06;;;;;;;;;;;;;;;;;;1034053;28;1247;-8
2021/10/20 00:41:37;;;;;;;;;;;;;;;;;;1034068;28;1327;-8
2021/10/20 00:42:07;;;;;;;;;;;;;;;;;;1029827;28;1192;-9
2021/10/20 00:42:38;;;;;;;;;;;;;;;;;;1034369;28;1280;-9
2021/10/20 00:43:08;;;;;;;;;;;;;;;;;;1034257;28;1039;-9
2021/10/20 00:43:40;;;;;;;;;;;;;;;;;;1033261;28;1444;-8
2021/10/20 00:44:10;;;;;;;;;;;;;;;;;;1034044;28;1097;-9
2021/10/20 00:44:46;;;;;;;;;;;;;;;;;;1021488;28;1214;-10
2021/10/20 00:45:16;;;;;;;;;;;;;;;;;;1017373;29;1106;-8
2021/10/20 00:45:48;;;;;;;;;;;;;;;;;;1018676;28;1238;-8
2021/10/20 00:46:28;;;;;;;;;;;;;;;;;;1023018;28;942;-9
2021/10/20 00:46:58;;;;;;;;;;;;;;;;;;1025057;28;1396;-8
2021/10/20 00:47:29;;;;;;;;;;;;;;;;;;1026245;28;1508;-8
2021/10/20 00:48:05;;;;;;;;;;;;;;;;;;1025913;28;1326;-8
2021/10/20 00:48:36;;;;;;;;;;;;;;;;;;1022311;28;1329;-9
2021/10/20 00:49:07;;;;;;;;;;;;;;;;;;1022095;28;1159;-8
2021/10/20 00:49:37;;;;;;;;;;;;;;;;;;1013412;29;1287;-9
2021/10/20 00:50:10;;;;;;;;;;;;;;;;;;1014067;28;1165;-8
2021/10/20 00:50:41;;;;;;;;;;;;;;;;;;1009600;29;1009;-8
2021/10/20 00:51:12;;;;;;;;;;;;;;;;;;1010769;29;1907;-8
2021/10/20 00:51:42;;;;;;;;;;;;;;;;;;1018437;29;1128;-8
2021/10/20 00:52:13;;;;;;;;;;;;;;;;;;1017883;28;1262;-8
2021/10/20 00:52:43;;;;;;;;;;;;;;;;;;1026628;28;1217;-8
2021/10/20 00:53:14;;;;;;;;;;;;;;;;;;1021578;28;1366;-8
2021/10/20 00:53:44;;;;;;;;;;;;;;;;;;1022118;28;1164;-8
2021/10/20 00:54:15;;;;;;;;;;;;;;;;;;1022099;28;1036;-8
2021/10/20 00:54:46;;;;;;;;;;;;;;;;;;1022026;28;1221;-8
2021/10/20 00:55:17;;;;;;;;;;;;;;;;;;1030153;28;1105;-8
2021/10/20 00:55:48;;;;;;;;;;;;;;;;;;1022348;28;1155;-8
2021/10/20 00:56:19;;;;;;;;;;;;;;;;;;1017641;29;1655;-8
2021/10/20 00:56:49;;;;;;;;;;;;;;;;;;1014257;29;1153;-8
2021/10/20 00:57:21;;;;;;;;;;;;;;;;;;1014678;28;1221;-8
2021/10/20 00:57:52;;;;;;;;;;;;;;;;;;1022632;28;1588;-8
2021/10/20 00:58:23;;;;;;;;;;;;;;;;;;1027050;28;1100;-8
2021/10/20 00:58:54;;;;;;;;;;;;;;;;;;1030954;28;1088;-8
2021/10/20 00:59:24;;;;;;;;;;;;;;;;;;1018821;28;1204;-8
2021/10/20 00:59:56;;;;;;;;;;;;;;;;;;1018369;29;1239;-8
2021/10/20 01:00:27;;;;;;;;;;;;;;;;;;1018933;28;1144;-9
2021/10/20 01:00:57;;;;;;;;;;;;;;;;;;1023012;28;900;-8
2021/10/20 01:01:28;;;;;;;;;;;;;;;;;;1022223;28;1110;-8
2021/10/20 01:01:59;;;;;;;;;;;;;;;;;;1022942;28;1444;-8
2021/10/20 01:02:29;;;;;;;;;;;;;;;;;;1022535;28;1099;-8
2021/10/20 01:03:00;;;;;;;;;;;;;;;;;;1018639;28;1209;-8
2021/10/20 01:03:31;;;;;;;;;;;;;;;;;;1022263;28;1161;-8
2021/10/20 01:04:01;;;;;;;;;;;;;;;;;;1026589;28;1194;-8
2021/10/20 01:04:32;;;;;;;;;;;;;;;;;;1026629;28;1651;-9
2021/10/20 01:05:04;;;;;;;;;;;;;;;;;;1030877;28;934;-9
2021/10/20 01:05:35;;;;;;;;;;;;;;;;;;1026032;28;1358;-9
2021/10/20 01:06:06;;;;;;;;;;;;;;;;;;1026945;28;1385;-8
2021/10/20 01:06:37;;;;;;;;;;;;;;;;;;1023031;28;1383;-9
2021/10/20 01:07:08;;;;;;;;;;;;;;;;;;1026361;28;1127;-8
2021/10/20 01:07:38;;;;;;;;;;;;;;;;;;1018676;29;1120;-8
2021/10/20 01:08:09;;;;;;;;;;;;;;;;;;1026698;28;1198;-9
2021/10/20 01:08:40;;;;;;;;;;;;;;;;;;1026614;28;1739;-9
2021/10/20 01:09:10;;;;;;;;;;;;;;;;;;1026780;28;1036;-8
2021/10/20 01:09:41;;;;;;;;;;;;;;;;;;1022854;28;1125;-8
2021/10/20 01:10:13;;;;;;;;;;;;;;;;;;1010811;29;1080;-8
2021/10/20 01:10:44;;;;;;;;;;;;;;;;;;1011411;29;1062;-8
2021/10/20 01:11:15;;;;;;;;;;;;;;;;;;1022694;28;1964;-8
2021/10/20 01:11:46;;;;;;;;;;;;;;;;;;1026200;28;1631;-8
2021/10/20 01:12:16;;;;;;;;;;;;;;;;;;1022447;28;1324;-8
2021/10/20 01:12:48;;;;;;;;;;;;;;;;;;1026804;28;1102;-8
2021/10/20 01:13:18;;;;;;;;;;;;;;;;;;1018579;29;1001;-9
2021/10/20 01:13:48;;;;;;;;;;;;;;;;;;1019050;29;1265;-8
2021/10/20 01:14:20;;;;;;;;;;;;;;;;;;1018617;28;1236;-9
2021/10/20 01:14:51;;;;;;;;;;;;;;;;;;1018571;28;1563;-9
2021/10/20 01:15:23;;;;;;;;;;;;;;;;;;1030793;28;1231;-8
2021/10/20 01:15:54;;;;;;;;;;;;;;;;;;1026177;28;1274;-8
2021/10/20 01:16:24;;;;;;;;;;;;;;;;;;1022652;28;1163;-8
2021/10/20 01:16:56;;;;;;;;;;;;;;;;;;1026908;28;1315;-8
2021/10/20 01:17:27;;;;;;;;;;;;;;;;;;1013945;28;1420;-8
2021/10/20 01:17:57;;;;;;;;;;;;;;;;;;1022759;28;1240;-8
2021/10/20 01:18:28;;;;;;;;;;;;;;;;;;1010427;29;1233;-9
2021/10/20 01:18:59;;;;;;;;;;;;;;;;;;1003184;29;1351;-8
2021/10/20 01:19:30;;;;;;;;;;;;;;;;;;1006793;29;1187;-8
2021/10/20 01:20:02;;;;;;;;;;;;;;;;;;1006992;29;1695;-8
2021/10/20 01:20:34;;;;;;;;;;;;;;;;;;1018409;29;1304;-9
2021/10/20 01:21:04;;;;;;;;;;;;;;;;;;1019874;28;1135;-8
2021/10/20 01:21:35;;;;;;;;;;;;;;;;;;1026121;28;1270;-9
2021/10/20 01:22:06;;;;;;;;;;;;;;;;;;1026991;28;966;-8
2021/10/20 01:22:37;;;;;;;;;;;;;;;;;;1022170;28;1128;-8
2021/10/20 01:23:08;;;;;;;;;;;;;;;;;;1014508;29;1043;-8
2021/10/20 01:23:39;;;;;;;;;;;;;;;;;;1018535;29;1216;-8
2021/10/20 01:24:09;;;;;;;;;;;;;;;;;;1018088;29;1611;-8
2021/10/20 01:24:40;;;;;;;;;;;;;;;;;;1018943;28;1111;-8
2021/10/20 01:25:11;;;;;;;;;;;;;;;;;;1025989;28;1192;-8
2021/10/20 01:25:42;;;;;;;;;;;;;;;;;;1018723;29;1187;-8
2021/10/20 01:26:12;;;;;;;;;;;;;;;;;;1014926;29;1136;-9
2021/10/20 01:26:42;;;;;;;;;;;;;;;;;;1022212;28;1205;-9
2021/10/20 01:27:13;;;;;;;;;;;;;;;;;;1022705;28;999;-8
2021/10/20 01:27:44;;;;;;;;;;;;;;;;;;1030921;28;1402;-8
2021/10/20 01:28:14;;;;;;;;;;;;;;;;;;1029837;28;1239;-8
2021/10/20 01:28:45;;;;;;;;;;;;;;;;;;1030815;28;1110;-8
2021/10/20 01:29:16;;;;;;;;;;;;;;;;;;1030353;28;1321;-9
2021/10/20 01:29:46;;;;;;;;;;;;;;;;;;1014683;29;1227;-8
2021/10/20 01:30:17;;;;;;;;;;;;;;;;;;1026541;28;1209;-8
2021/10/20 01:30:48;;;;;;;;;;;;;;;;;;1021134;28;1729;-8
2021/10/20 01:31:19;;;;;;;;;;;;;;;;;;1018804;28;1961;-8
2021/10/20 01:31:50;;;;;;;;;;;;;;;;;;1022758;28;1150;-9
2021/10/20 01:32:21;;;;;;;;;;;;;;;;;;1018684;28;1154;-9
2021/10/20 01:32:51;;;;;;;;;;;;;;;;;;1019163;28;1545;-8
2021/10/20 01:33:22;;;;;;;;;;;;;;;;;;1030435;28;1168;-8
2021/10/20 01:33:53;;;;;;;;;;;;;;;;;;1030692;28;1516;-9
2021/10/20 01:34:25;;;;;;;;;;;;;;;;;;1022709;28;1481;-8
2021/10/20 01:34:56;;;;;;;;;;;;;;;;;;1019144;28;1003;-8
2021/10/20 01:35:26;;;;;;;;;;;;;;;;;;1026746;28;1048;-8
2021/10/20 01:35:57;;;;;;;;;;;;;;;;;;1018209;28;1223;-8
2021/10/20 01:36:27;;;;;;;;;;;;;;;;;;1022119;28;1209;-8
2021/10/20 01:37:01;;;;;;;;;;;;;;;;;;1022413;28;1178;-8
2021/10/20 01:37:32;;;;;;;;;;;;;;;;;;1019503;28;1196;-8
2021/10/20 01:38:03;;;;;;;;;;;;;;;;;;1026721;28;1137;-8
2021/10/20 01:38:34;;;;;;;;;;;;;;;;;;1019118;28;1171;-9
2021/10/20 01:39:05;;;;;;;;;;;;;;;;;;1018906;28;1278;-8
2021/10/20 01:39:35;;;;;;;;;;;;;;;;;;1022716;28;1104;-8
2021/10/20 01:40:07;;;;;;;;;;;;;;;;;;1018370;28;1118;-8
2021/10/20 01:40:38;;;;;;;;;;;;;;;;;;1022659;28;1189;-8
2021/10/20 01:41:08;;;;;;;;;;;;;;;;;;1026902;28;986;-8
2021/10/20 01:41:40;;;;;;;;;;;;;;;;;;1025781;28;1586;-8
2021/10/20 01:42:11;;;;;;;;;;;;;;;;;;1031348;28;1240;-8
2021/10/20 01:42:42;;;;;;;;;;;;;;;;;;1034175;28;1252;-8
2021/10/20 01:43:12;;;;;;;;;;;;;;;;;;1026450;28;1009;-8
2021/10/20 01:43:47;;;;;;;;;;;;;;;;;;1026790;28;1027;-8
2021/10/20 01:44:17;;;;;;;;;;;;;;;;;;1025892;28;1183;-8
2021/10/20 01:44:48;;;;;;;;;;;;;;;;;;1027199;28;1331;-8
2021/10/20 01:45:18;;;;;;;;;;;;;;;;;;1034595;28;1195;-8
2021/10/20 01:45:49;;;;;;;;;;;;;;;;;;1034785;28;1126;-8
2021/10/20 01:46:20;;;;;;;;;;;;;;;;;;1034786;28;1160;-8
2021/10/20 01:46:51;;;;;;;;;;;;;;;;;;1030545;28;1148;-8
2021/10/20 01:47:22;;;;;;;;;;;;;;;;;;1025942;28;1207;-8
2021/10/20 01:47:53;;;;;;;;;;;;;;;;;;1018444;29;1209;-8
2021/10/20 01:48:23;;;;;;;;;;;;;;;;;;1018502;28;1326;-8
2021/10/20 01:48:53;;;;;;;;;;;;;;;;;;1022727;28;1293;-8
2021/10/20 01:49:24;;;;;;;;;;;;;;;;;;1026813;28;1187;-8
2021/10/20 01:49:55;;;;;;;;;;;;;;;;;;1030877;28;1530;-8
2021/10/20 01:50:25;;;;;;;;;;;;;;;;;;1031493;28;1071;-8
2021/10/20 01:50:56;;;;;;;;;;;;;;;;;;1033960;28;1694;-8
2021/10/20 01:51:27;;;;;;;;;;;;;;;;;;1034664;28;1983;-9
2021/10/20 01:51:58;;;;;;;;;;;;;;;;;;1034809;28;892;-8
2021/10/20 01:52:28;;;;;;;;;;;;;;;;;;1034253;28;1160;-8
2021/10/20 01:52:59;;;;;;;;;;;;;;;;;;1030363;28;1264;-9
2021/10/20 01:53:30;;;;;;;;;;;;;;;;;;1030447;28;1655;-8
2021/10/20 01:54:01;;;;;;;;;;;;;;;;;;1022596;28;1057;-8
2021/10/20 01:54:32;;;;;;;;;;;;;;;;;;1022586;28;1326;-8
2021/10/20 01:55:04;;;;;;;;;;;;;;;;;;1014015;29;1413;-9
2021/10/20 01:55:35;;;;;;;;;;;;;;;;;;1014811;29;1176;-8
2021/10/20 01:56:06;;;;;;;;;;;;;;;;;;1007461;29;1241;-8
2021/10/20 01:56:37;;;;;;;;;;;;;;;;;;1014552;28;1202;-8
2021/10/20 01:57:07;;;;;;;;;;;;;;;;;;1022429;28;1199;-9
2021/10/20 01:57:37;;;;;;;;;;;;;;;;;;1021902;28;1409;-8
2021/10/20 01:58:08;;;;;;;;;;;;;;;;;;1026294;28;1245;-9
2021/10/20 01:58:39;;;;;;;;;;;;;;;;;;1030989;28;1333;-9
2021/10/20 01:59:10;;;;;;;;;;;;;;;;;;1017968;29;1264;-8
2021/10/20 01:59:40;;;;;;;;;;;;;;;;;;1018911;29;1126;-8
2021/10/20 02:00:11;;;;;;;;;;;;;;;;;;1014599;29;2295;-7
2021/10/20 02:00:45;;;;;;;;;;;;;;;;;;1019675;28;1163;-8
2021/10/20 02:01:15;;;;;;;;;;;;;;;;;;1022565;28;941;-7
2021/10/20 02:01:46;;;;;;;;;;;;;;;;;;1022897;28;1374;-8
2021/10/20 02:02:18;;;;;;;;;;;;;;;;;;1022345;28;1152;-8
2021/10/20 02:02:49;;;;;;;;;;;;;;;;;;1022789;28;1849;-8
2021/10/20 02:03:19;;;;;;;;;;;;;;;;;;1021513;28;1472;-9
2021/10/20 02:03:50;;;;;;;;;;;;;;;;;;1022527;28;1254;-9
2021/10/20 02:04:20;;;;;;;;;;;;;;;;;;1026305;28;1276;-7
2021/10/20 02:04:51;;;;;;;;;;;;;;;;;;1031500;28;1035;-9
2021/10/20 02:05:21;;;;;;;;;;;;;;;;;;1030617;28;1304;-8
2021/10/20 02:05:55;;;;;;;;;;;;;;;;;;1030341;28;1178;-8
2021/10/20 02:06:25;;;;;;;;;;;;;;;;;;1030705;28;1259;-8
2021/10/20 02:06:56;;;;;;;;;;;;;;;;;;1022939;28;1062;-8
2021/10/20 02:07:27;;;;;;;;;;;;;;;;;;1022288;28;1177;-8
2021/10/20 02:07:58;;;;;;;;;;;;;;;;;;1002790;29;1194;-8
2021/10/20 02:08:28;;;;;;;;;;;;;;;;;;998426;29;1549;-8
2021/10/20 02:08:59;;;;;;;;;;;;;;;;;;1006516;29;1261;-8
2021/10/20 02:09:29;;;;;;;;;;;;;;;;;;1010698;29;1288;-8
2021/10/20 02:10:02;;;;;;;;;;;;;;;;;;1022308;28;1175;-8
2021/10/20 02:10:32;;;;;;;;;;;;;;;;;;1014572;29;1677;-9
2021/10/20 02:11:03;;;;;;;;;;;;;;;;;;1014241;29;1221;-8
2021/10/20 02:11:35;;;;;;;;;;;;;;;;;;1015151;28;1918;-9
2021/10/20 02:12:05;;;;;;;;;;;;;;;;;;1007277;29;1214;-8
2021/10/20 02:12:36;;;;;;;;;;;;;;;;;;1021750;28;1557;-8
2021/10/20 02:13:07;;;;;;;;;;;;;;;;;;1022560;28;1395;-9
2021/10/20 02:13:38;;;;;;;;;;;;;;;;;;1022539;28;1195;-9
2021/10/20 02:14:09;;;;;;;;;;;;;;;;;;1022235;28;1284;-8
2021/10/20 02:14:40;;;;;;;;;;;;;;;;;;1026783;28;1210;-9
2021/10/20 02:15:11;;;;;;;;;;;;;;;;;;1017500;29;1522;-8
2021/10/20 02:15:42;;;;;;;;;;;;;;;;;;1018922;28;1195;-8
2021/10/20 02:16:12;;;;;;;;;;;;;;;;;;1017983;29;1306;-8
2021/10/20 02:16:43;;;;;;;;;;;;;;;;;;1014651;28;1195;-8
2021/10/20 02:17:16;;;;;;;;;;;;;;;;;;1018313;29;1135;-8
2021/10/20 02:17:47;;;;;;;;;;;;;;;;;;1013856;29;1254;-9
2021/10/20 02:18:19;;;;;;;;;;;;;;;;;;1010881;29;1191;-9
2021/10/20 02:18:49;;;;;;;;;;;;;;;;;;1014659;29;1024;-9
2021/10/20 02:19:20;;;;;;;;;;;;;;;;;;1006627;29;1167;-8
2021/10/20 02:19:51;;;;;;;;;;;;;;;;;;1006848;29;1066;-8
2021/10/20 02:20:21;;;;;;;;;;;;;;;;;;1014069;29;1214;-9
2021/10/20 02:20:52;;;;;;;;;;;;;;;;;;1014667;29;1059;-8
2021/10/20 02:21:23;;;;;;;;;;;;;;;;;;1014835;29;1089;-8
2021/10/20 02:21:55;;;;;;;;;;;;;;;;;;1022108;28;1223;-8
2021/10/20 02:22:25;;;;;;;;;;;;;;;;;;1026699;28;964;-8
2021/10/20 02:22:56;;;;;;;;;;;;;;;;;;1026714;28;1763;-8
2021/10/20 02:23:26;;;;;;;;;;;;;;;;;;1022366;28;1173;-8
2021/10/20 02:23:57;;;;;;;;;;;;;;;;;;1022630;28;1291;-8
2021/10/20 02:24:27;;;;;;;;;;;;;;;;;;1014006;29;1267;-9
2021/10/20 02:24:58;;;;;;;;;;;;;;;;;;1014606;29;1172;-8
2021/10/20 02:25:29;;;;;;;;;;;;;;;;;;1022497;28;1470;-8
2021/10/20 02:26:00;;;;;;;;;;;;;;;;;;1018034;28;1336;-9
2021/10/20 02:26:30;;;;;;;;;;;;;;;;;;1018149;29;1098;-9
2021/10/20 02:27:01;;;;;;;;;;;;;;;;;;1014319;29;1813;-9
2021/10/20 02:27:32;;;;;;;;;;;;;;;;;;1018356;29;1539;-8
2021/10/20 02:28:02;;;;;;;;;;;;;;;;;;1018520;29;1215;-8
2021/10/20 02:28:33;;;;;;;;;;;;;;;;;;1021542;28;1552;-8
2021/10/20 02:29:04;;;;;;;;;;;;;;;;;;1022633;28;1242;-10
2021/10/20 02:29:35;;;;;;;;;;;;;;;;;;1026055;28;1131;-9
2021/10/20 02:30:08;;;;;;;;;;;;;;;;;;1026143;28;1280;-8
2021/10/20 02:30:39;;;;;;;;;;;;;;;;;;1026614;28;1252;-10
2021/10/20 02:31:09;;;;;;;;;;;;;;;;;;1018092;28;2059;-8
2021/10/20 02:31:45;;;;;;;;;;;;;;;;;;1022555;28;1216;-8
2021/10/20 02:32:16;;;;;;;;;;;;;;;;;;1022769;28;1703;-8
2021/10/20 02:32:47;;;;;;;;;;;;;;;;;;1016000;28;1240;-8
2021/10/20 02:33:18;;;;;;;;;;;;;;;;;;1018625;29;1171;-8
2021/10/20 02:33:48;;;;;;;;;;;;;;;;;;1014002;29;1114;-8
2021/10/20 02:34:20;;;;;;;;;;;;;;;;;;1014402;29;1309;-8
2021/10/20 02:34:50;;;;;;;;;;;;;;;;;;1014976;29;1006;-9
2021/10/20 02:35:21;;;;;;;;;;;;;;;;;;1018232;28;1417;-8
2021/10/20 02:35:52;;;;;;;;;;;;;;;;;;1022381;28;1249;-8
2021/10/20 02:36:23;;;;;;;;;;;;;;;;;;1022228;28;1297;-9
2021/10/20 02:36:54;;;;;;;;;;;;;;;;;;1022037;28;1853;-8
2021/10/20 02:37:25;;;;;;;;;;;;;;;;;;1018524;28;1134;-9
2021/10/20 02:37:55;;;;;;;;;;;;;;;;;;1021588;28;1254;-8
2021/10/20 02:38:26;;;;;;;;;;;;;;;;;;1014299;29;1062;-9
2021/10/20 02:38:58;;;;;;;;;;;;;;;;;;1013994;29;1308;-8
2021/10/20 02:39:28;;;;;;;;;;;;;;;;;;1014433;29;1132;-8
2021/10/20 02:39:59;;;;;;;;;;;;;;;;;;1018343;28;1089;-8
2021/10/20 02:40:30;;;;;;;;;;;;;;;;;;1017984;28;1727;-8
2021/10/20 02:41:00;;;;;;;;;;;;;;;;;;1018525;29;1224;-8
2021/10/20 02:41:31;;;;;;;;;;;;;;;;;;1022362;28;1146;-8
2021/10/20 02:42:02;;;;;;;;;;;;;;;;;;1022028;28;1232;-9
2021/10/20 02:42:34;;;;;;;;;;;;;;;;;;1022091;28;1596;-8
2021/10/20 02:43:05;;;;;;;;;;;;;;;;;;1014343;29;1225;-8
2021/10/20 02:43:37;;;;;;;;;;;;;;;;;;1011218;28;1362;-8
2021/10/20 02:44:08;;;;;;;;;;;;;;;;;;1018404;29;1066;-8
2021/10/20 02:44:39;;;;;;;;;;;;;;;;;;1013918;29;1488;-8
2021/10/20 02:45:11;;;;;;;;;;;;;;;;;;1019334;28;1266;-8
2021/10/20 02:45:41;;;;;;;;;;;;;;;;;;1030022;28;1203;-8
2021/10/20 02:46:12;;;;;;;;;;;;;;;;;;1025319;28;1197;-8
2021/10/20 02:46:43;;;;;;;;;;;;;;;;;;1018900;29;1557;-8
2021/10/20 02:47:13;;;;;;;;;;;;;;;;;;1006209;29;1029;-8
2021/10/20 02:47:44;;;;;;;;;;;;;;;;;;1006911;29;1119;-8
2021/10/20 02:48:15;;;;;;;;;;;;;;;;;;1013737;29;1155;-8
2021/10/20 02:48:45;;;;;;;;;;;;;;;;;;1014701;28;1070;-8
2021/10/20 02:49:16;;;;;;;;;;;;;;;;;;1022437;28;1203;-8
2021/10/20 02:49:46;;;;;;;;;;;;;;;;;;1025594;28;1200;-8
2021/10/20 02:50:17;;;;;;;;;;;;;;;;;;1030121;28;1218;-8
2021/10/20 02:50:47;;;;;;;;;;;;;;;;;;1026757;28;1078;-9
2021/10/20 02:51:17;;;;;;;;;;;;;;;;;;1021063;28;1926;-8
2021/10/20 02:51:48;;;;;;;;;;;;;;;;;;1022643;28;1493;-8
2021/10/20 02:52:18;;;;;;;;;;;;;;;;;;1025426;28;1695;-9
2021/10/20 02:52:49;;;;;;;;;;;;;;;;;;1030464;28;1202;-8
2021/10/20 02:53:19;;;;;;;;;;;;;;;;;;1022117;28;1264;-9
2021/10/20 02:53:51;;;;;;;;;;;;;;;;;;1022093;28;1161;-9
2021/10/20 02:54:22;;;;;;;;;;;;;;;;;;1018509;29;1144;-8
2021/10/20 02:54:53;;;;;;;;;;;;;;;;;;1018418;28;1097;-8
2021/10/20 02:55:24;;;;;;;;;;;;;;;;;;1018204;29;1069;-8
2021/10/20 02:55:54;;;;;;;;;;;;;;;;;;1018656;28;1236;-8
2021/10/20 02:56:25;;;;;;;;;;;;;;;;;;1017796;28;1407;-8
2021/10/20 02:56:55;;;;;;;;;;;;;;;;;;1026307;28;1152;-8
2021/10/20 02:57:26;;;;;;;;;;;;;;;;;;1030607;28;1072;-8
2021/10/20 02:57:57;;;;;;;;;;;;;;;;;;1022337;28;1227;-8
2021/10/20 02:58:27;;;;;;;;;;;;;;;;;;1026441;28;934;-8
2021/10/20 02:58:58;;;;;;;;;;;;;;;;;;1025547;28;1257;-9
2021/10/20 02:59:29;;;;;;;;;;;;;;;;;;1022256;28;1215;-9
2021/10/20 03:00:00;;;;;;;;;;;;;;;;;;1014491;29;1320;-9
2021/10/20 03:00:30;;;;;;;;;;;;;;;;;;1013643;29;1526;-8
2021/10/20 03:01:01;;;;;;;;;;;;;;;;;;1018407;28;1110;-8
2021/10/20 03:01:32;;;;;;;;;;;;;;;;;;1021922;28;1117;-8
2021/10/20 03:02:03;;;;;;;;;;;;;;;;;;1018308;29;1358;-8
2021/10/20 03:02:33;;;;;;;;;;;;;;;;;;1025861;28;1168;-9
2021/10/20 03:03:04;;;;;;;;;;;;;;;;;;1021918;28;1735;-9
2021/10/20 03:03:35;;;;;;;;;;;;;;;;;;1030131;28;1309;-8
2021/10/20 03:04:05;;;;;;;;;;;;;;;;;;1030429;28;1089;-8
2021/10/20 03:04:37;;;;;;;;;;;;;;;;;;1029446;28;1214;-8
2021/10/20 03:05:08;;;;;;;;;;;;;;;;;;1026075;28;1491;-8
2021/10/20 03:05:39;;;;;;;;;;;;;;;;;;1025804;28;1402;-9
2021/10/20 03:06:10;;;;;;;;;;;;;;;;;;1026074;28;1142;-8
2021/10/20 03:06:40;;;;;;;;;;;;;;;;;;1026857;28;1104;-9
2021/10/20 03:07:11;;;;;;;;;;;;;;;;;;1030186;28;1350;-8
2021/10/20 03:07:45;;;;;;;;;;;;;;;;;;1018522;28;1151;-8
2021/10/20 03:08:17;;;;;;;;;;;;;;;;;;1026024;28;1116;-8
2021/10/20 03:08:48;;;;;;;;;;;;;;;;;;1026938;28;1226;-8
2021/10/20 03:09:18;;;;;;;;;;;;;;;;;;1029687;28;1115;-9
2021/10/20 03:09:49;;;;;;;;;;;;;;;;;;1025836;28;1332;-8
2021/10/20 03:10:19;;;;;;;;;;;;;;;;;;1026401;28;1026;-8
2021/10/20 03:10:50;;;;;;;;;;;;;;;;;;1030609;28;1378;-8
2021/10/20 03:11:20;;;;;;;;;;;;;;;;;;1022128;28;1914;-8
2021/10/20 03:11:51;;;;;;;;;;;;;;;;;;1014552;29;1077;-8
2021/10/20 03:12:23;;;;;;;;;;;;;;;;;;1013899;29;1405;-8
2021/10/20 03:12:53;;;;;;;;;;;;;;;;;;1010088;29;1142;-8
2021/10/20 03:13:24;;;;;;;;;;;;;;;;;;1014366;29;1137;-8
2021/10/20 03:13:56;;;;;;;;;;;;;;;;;;1021601;28;1252;-8
2021/10/20 03:14:27;;;;;;;;;;;;;;;;;;1022466;28;986;-8
2021/10/20 03:14:57;;;;;;;;;;;;;;;;;;1026066;28;1129;-8
2021/10/20 03:15:28;;;;;;;;;;;;;;;;;;1021851;28;1123;-9
2021/10/20 03:15:58;;;;;;;;;;;;;;;;;;1026482;28;1035;-8
2021/10/20 03:16:29;;;;;;;;;;;;;;;;;;1029207;28;1404;-8
2021/10/20 03:16:59;;;;;;;;;;;;;;;;;;1030439;28;1198;-9
2021/10/20 03:17:31;;;;;;;;;;;;;;;;;;1021620;28;1477;-8
2021/10/20 03:18:02;;;;;;;;;;;;;;;;;;1018017;29;1100;-8
2021/10/20 03:18:33;;;;;;;;;;;;;;;;;;1014201;29;1130;-8
2021/10/20 03:19:04;;;;;;;;;;;;;;;;;;1010692;29;1687;-9
2021/10/20 03:19:34;;;;;;;;;;;;;;;;;;1014783;28;1256;-8
2021/10/20 03:20:08;;;;;;;;;;;;;;;;;;1022386;28;1265;-8
2021/10/20 03:20:39;;;;;;;;;;;;;;;;;;1022298;28;1714;-9
2021/10/20 03:21:09;;;;;;;;;;;;;;;;;;1030674;28;1133;-8
2021/10/20 03:21:40;;;;;;;;;;;;;;;;;;1033964;28;1813;-8
2021/10/20 03:22:11;;;;;;;;;;;;;;;;;;1026005;28;1577;-9
2021/10/20 03:22:43;;;;;;;;;;;;;;;;;;1026418;28;1066;-8
2021/10/20 03:23:14;;;;;;;;;;;;;;;;;;1025775;28;1184;-8
2021/10/20 03:23:45;;;;;;;;;;;;;;;;;;1015386;28;1161;-8
2021/10/20 03:24:16;;;;;;;;;;;;;;;;;;1018064;29;1029;-8
2021/10/20 03:24:47;;;;;;;;;;;;;;;;;;1014395;29;1191;-8
2021/10/20 03:25:17;;;;;;;;;;;;;;;;;;1014347;29;1004;-8
2021/10/20 03:25:48;;;;;;;;;;;;;;;;;;1014262;28;1215;-8
2021/10/20 03:26:18;;;;;;;;;;;;;;;;;;1022152;28;997;-8
2021/10/20 03:26:48;;;;;;;;;;;;;;;;;;1031231;28;1155;-8
2021/10/20 03:27:19;;;;;;;;;;;;;;;;;;1031101;28;973;-8
2021/10/20 03:27:50;;;;;;;;;;;;;;;;;;1034427;28;1118;-8
2021/10/20 03:28:22;;;;;;;;;;;;;;;;;;1017512;29;1301;-8
2021/10/20 03:28:53;;;;;;;;;;;;;;;;;;1018046;29;1176;-8
2021/10/20 03:29:23;;;;;;;;;;;;;;;;;;1018121;29;1342;-8
2021/10/20 03:29:54;;;;;;;;;;;;;;;;;;1018050;28;1499;-8
2021/10/20 03:30:24;;;;;;;;;;;;;;;;;;1026497;28;1152;-8
2021/10/20 03:30:56;;;;;;;;;;;;;;;;;;1017402;29;1236;-8
2021/10/20 03:31:26;;;;;;;;;;;;;;;;;;1018134;28;1938;-8
2021/10/20 03:31:57;;;;;;;;;;;;;;;;;;1021981;28;1177;-8
2021/10/20 03:32:27;;;;;;;;;;;;;;;;;;1017627;28;1483;-8
2021/10/20 03:32:58;;;;;;;;;;;;;;;;;;1022184;28;1282;-8
2021/10/20 03:33:29;;;;;;;;;;;;;;;;;;1018092;29;987;-8
2021/10/20 03:33:59;;;;;;;;;;;;;;;;;;1018067;28;1239;-8
2021/10/20 03:34:30;;;;;;;;;;;;;;;;;;1018116;29;1047;-8
2021/10/20 03:35:01;;;;;;;;;;;;;;;;;;1018244;28;1148;-9
2021/10/20 03:35:32;;;;;;;;;;;;;;;;;;1022054;28;1106;-8
2021/10/20 03:36:04;;;;;;;;;;;;;;;;;;1022502;28;1357;-8
2021/10/20 03:36:34;;;;;;;;;;;;;;;;;;1021517;28;1214;-8
2021/10/20 03:37:05;;;;;;;;;;;;;;;;;;1026565;28;1213;-9
2021/10/20 03:37:36;;;;;;;;;;;;;;;;;;1025852;28;1639;-8
2021/10/20 03:38:06;;;;;;;;;;;;;;;;;;1025941;28;1237;-8
2021/10/20 03:38:37;;;;;;;;;;;;;;;;;;1026340;28;1054;-8
2021/10/20 03:39:08;;;;;;;;;;;;;;;;;;1026358;28;1147;-8